Latest Weather Observations for Applethorpe

IDQ60801

Issued at 1:02 pm EST Tuesday 20 August 2019 (issued every 10 minutes, with the page automatically refreshed every 10 minutes)

About weather observations | Map of weather stations | Latest weather observations for QLD | Other Formats
Station Details ID: 041175 Name: APPLETHORPE Lat: -28.62 Lon: 151.95 Height: 871.6 m
Data from the previous 72 hours. | See also: Recent months at Applethorpe
Date/Time
EST
Temp
°C
App
Temp
°C
Dew
Point
°C
Rel
Hum
%
Delta-T
°C
Wind Press
QNH
hPa
Press
MSL
hPa
Rain since
9am
mm
Dir  Spd
km/h
Gust
km/h
Spd
kts
Gust
kts
20/01:00pm 16.2 10.5 -12.2 13 9.8 W 13 24 7 13 1023.6 1023.4 0.0
20/12:30pm 16.3 10.5 -14.2 11 10.2 SW 13 20 7 11 1023.6 1023.4 0.0
20/12:00pm 15.9 10.8 -15.6 10 10.1 SSW 9 19 5 10 1024.1 1023.9 0.0
20/11:30am 14.8 10.1 -14.3 12 9.5 SW 7 15 4 8 1024.6 1024.4 0.0
20/11:00am 14.4 10.0 -13.6 13 9.2 SW 6 13 3 7 1024.9 1024.7 0.0
20/10:30am 12.5 8.0 -14.2 14 8.4 SSW 6 11 3 6 1025.2 1025.0 0.0
20/10:00am 11.3 6.7 -12.8 17 7.7 SW 7 11 4 6 1025.4 1025.3 0.0
20/09:30am 9.6 5.4 -10.5 23 6.6 SW 6 9 3 5 1025.4 1025.3 0.0
20/09:00am 8.0 4.2 -9.8 27 5.8 SSW 4 9 2 5 1025.3 1025.1 0.0
20/08:30am 5.3 1.6 -8.9 35 4.6 S 4 6 2 3 1025.3 1025.1 0.0
20/08:00am 3.3 -0.7 -7.5 45 3.7 SW 6 7 3 4 1025.1 1024.9 0.0
20/07:30am 0.6 -2.2 -6.5 59 2.3 CALM 0 0 0 0 1025.1 1024.9 0.0
20/07:00am -2.9 -5.8 -7.6 70 1.3 CALM 0 0 0 0 1024.8 1024.6 0.0
20/06:30am -2.6 -5.6 -8.7 63 1.7 CALM 0 2 0 1 1024.4 1024.3 0.0
20/06:00am -2.0 -6.0 -7.5 66 1.6 SW 6 7 3 4 1024.0 1023.8 0.0
20/05:30am -2.2 -5.9 -8.5 62 1.8 SW 4 6 2 3 1023.6 1023.4 0.0
20/05:00am -0.4 -4.6 -8.1 56 2.4 SSW 7 9 4 5 1023.6 1023.4 0.0
20/04:30am 0.3 -3.9 -8.1 53 2.6 SSW 7 11 4 6 1023.6 1023.4 0.0
20/04:00am 0.8 -3.3 -8.4 50 2.9 SSW 6 11 3 6 1023.4 1023.1 0.0
20/03:30am 1.7 -3.2 -7.6 50 3.1 SW 11 17 6 9 1023.2 1023.0 0.0
20/03:00am 1.6 -2.6 -7.4 51 3.0 SW 7 13 4 7 1023.4 1023.1 0.0
20/02:30am 1.7 -2.3 -7.8 49 3.1 SSW 6 11 3 6 1023.6 1023.4 0.0
20/02:00am 3.3 -0.9 -7.8 44 3.8 SSW 7 15 4 8 1023.4 1023.1 0.0
20/01:30am 3.8 -1.1 -7.6 43 3.7 SW 11 19 6 10 1023.4 1023.1 0.0
20/01:00am 4.4 -0.9 -7.7 41 4.0 SW 13 20 7 11 1023.6 1023.4 0.0
20/12:30am 4.9 0.0 -6.9 42 4.0 SW 11 20 6 11 1023.6 1023.4 0.0
20/12:00am 5.7 0.1 -6.5 41 4.2 SSW 15 24 8 13 1023.5 1023.3 0.0
 
Date/Time
EST
Temp
°C
App
Temp
°C
Dew
Point
°C
Rel
Hum
%
Delta-T
°C
Wind Press
QNH
hPa
Press
MSL
hPa
Rain since
9am
mm
Dir  Spd
km/h
Gust
km/h
Spd
kts
Gust
kts
19/11:30pm 5.9 0.3 -6.0 42 4.2 SW 15 22 8 12 1023.1 1022.9 0.0
19/11:00pm 6.0 1.6 -5.9 42 4.2 SW 9 20 5 11 1023.1 1022.9 0.0
19/10:30pm 6.6 1.8 -5.7 41 4.4 SW 11 20 6 11 1022.8 1022.6 0.0
19/10:00pm 6.8 2.1 -5.5 41 4.4 SW 11 17 6 9 1022.8 1022.6 0.0
19/09:30pm 7.2 2.1 -5.5 40 4.6 SW 13 24 7 13 1022.5 1022.3 0.0
19/09:00pm 7.3 2.6 -5.4 40 4.6 SW 11 19 6 10 1022.6 1022.4 0.0
19/08:30pm 7.8 3.5 -5.3 39 4.8 SW 9 17 5 9 1022.4 1022.1 0.0
19/08:00pm 8.3 2.4 -5.2 38 5.0 SW 17 26 9 14 1021.7 1021.5 0.0
19/07:30pm 8.5 2.6 -5.7 36 5.2 WSW 17 26 9 14 1021.3 1021.0 0.0
19/07:00pm 8.9 2.6 -5.7 35 5.3 WSW 19 28 10 15 1021.0 1020.7 0.0
19/06:30pm 9.6 3.3 -5.9 33 5.7 SW 19 32 10 17 1020.5 1020.3 0.0
19/06:00pm 10.2 3.6 -6.6 30 6.1 WSW 20 35 11 19 1020.0 1019.7 0.0
19/05:30pm 11.1 3.3 -7.2 27 6.7 WSW 26 39 14 21 1019.3 1019.0 0.0
19/05:00pm 12.1 4.7 -7.8 24 7.2 WSW 24 43 13 23 1019.1 1018.8 0.0
19/04:30pm 13.3 6.2 -8.5 21 7.9 WSW 22 48 12 26 1018.7 1018.4 0.0
19/04:01pm 13.8 5.4 -10.1 18 8.4 WSW 28 50 15 27 1018.3 1018.0 0.0
19/04:00pm 13.9 5.9 -10.0 18 8.4 WSW 26 44 14 24 1018.5 1018.1 0.0
19/03:52pm 14.0 5.6 -10.6 17 8.6 WSW 28 54 15 29 1018.1 1017.8 0.0
19/03:30pm 14.6 6.5 -10.9 16 8.9 SW 26 50 14 27 1017.8 1017.5 0.0
19/03:00pm 15.4 8.1 -11.1 15 9.3 WSW 22 39 12 21 1017.6 1017.3 0.0
19/02:30pm 15.6 8.0 -9.3 17 9.1 WSW 24 43 13 23 1017.4 1017.0 0.0
19/02:00pm 16.3 9.0 -6.0 21 8.8 WSW 24 41 13 22 1017.5 1017.2 0.0
19/01:30pm 16.6 10.4 -3.5 25 8.4 WSW 20 41 11 22 1017.5 1017.2 0.0
19/01:00pm 17.1 11.2 -2.5 26 8.4 WSW 19 37 10 20 1017.6 1017.3 0.0
19/12:30pm 16.6 10.4 -3.5 25 8.4 WSW 20 33 11 18 1017.8 1017.5 0.0
19/12:00pm 16.3 10.3 -1.3 30 7.7 WSW 20 37 11 20 1017.9 1017.6 0.0
19/11:30am 16.0 9.8 -0.2 33 7.2 WSW 22 35 12 19 1018.3 1018.0 0.0
19/11:00am 16.2 10.4 -0.1 33 7.3 WSW 20 37 11 20 1018.6 1018.3 0.0
19/10:30am 16.0 10.8 -0.2 33 7.2 WSW 17 28 9 15 1018.6 1018.3 0.0
19/10:00am 15.5 10.7 0.5 36 6.8 W 15 24 8 13 1018.6 1018.3 0.0
19/09:30am 15.1 10.4 0.9 38 6.4 WSW 15 24 8 13 1018.6 1018.3 0.0
19/09:00am 15.2 11.0 1.4 39 6.3 W 13 20 7 11 1018.1 1017.8 0.0
19/08:30am 13.6 9.1 2.2 46 5.2 W 15 24 8 13 1017.8 1017.5 0.0
19/08:00am 12.9 9.3 3.0 51 4.6 W 11 20 6 11 1017.7 1017.4 0.0
19/07:30am 12.2 8.6 3.2 54 4.2 WNW 11 24 6 13 1017.8 1017.5 0.0
19/07:00am 12.0 8.9 3.5 56 4.0 WNW 9 19 5 10 1017.7 1017.4 0.0
19/06:30am 11.6 8.6 3.9 59 3.6 NW 9 15 5 8 1017.4 1017.0 0.0
19/06:00am 11.5 9.1 4.3 61 3.4 WNW 6 11 3 6 1017.3 1016.9 0.0
19/05:30am 11.6 9.1 4.8 63 3.3 NW 7 15 4 8 1017.3 1016.9 0.0
19/05:00am 12.0 9.6 5.4 64 3.2 NW 7 17 4 9 1017.2 1016.8 0.0
19/04:30am 12.1 8.8 6.2 67 2.9 NNW 13 19 7 10 1016.2 1015.8 0.0
19/04:00am 11.9 8.7 7.0 72 2.5 NNW 13 20 7 11 1016.4 1016.0 0.0
19/03:30am 11.9 8.4 7.4 74 2.3 N 15 24 8 13 1016.6 1016.3 0.0
19/03:00am 12.1 8.4 7.8 75 2.2 N 17 24 9 13 1016.8 1016.5 0.0
19/02:30am 12.2 8.6 8.3 77 2.0 N 17 26 9 14 1017.2 1016.8 0.0
19/02:00am 12.6 9.5 8.7 77 2.0 N 15 26 8 14 1017.5 1017.2 0.0
19/01:30am 12.7 9.5 8.4 75 2.2 N 15 24 8 13 1017.6 1017.3 0.0
19/01:00am 13.2 10.1 8.7 74 2.4 N 15 24 8 13 1017.9 1017.6 0.0
19/12:30am 13.1 10.4 8.8 75 2.3 N 13 22 7 12 1018.2 1017.9 0.0
19/12:00am 13.3 10.2 8.8 74 2.4 N 15 24 8 13 1018.2 1017.9 0.0
 
Date/Time
EST
Temp
°C
App
Temp
°C
Dew
Point
°C
Rel
Hum
%
Delta-T
°C
Wind Press
QNH
hPa
Press
MSL
hPa
Rain since
9am
mm
Dir  Spd
km/h
Gust
km/h
Spd
kts
Gust
kts
18/11:30pm 13.3 10.5 8.4 72 2.6 N 13 24 7 13 1018.5 1018.1 0.0
18/11:00pm 13.3 9.9 7.7 69 2.9 N 15 22 8 12 1018.8 1018.5 0.0
18/10:30pm 13.2 10.0 7.0 66 3.1 N 13 19 7 10 1019.1 1018.8 0.0
18/10:00pm 12.7 10.7 7.0 68 2.9 NNE 7 11 4 6 1019.2 1018.9 0.0
18/09:30pm 9.3 7.1 5.3 76 1.9 NNE 6 7 3 4 1019.3 1019.0 0.0
18/09:00pm 7.7 5.3 2.2 68 2.4 NE 4 6 2 3 1019.5 1019.3 0.0
18/08:30pm 8.2 5.9 2.7 68 2.4 NE 4 6 2 3 1019.7 1019.4 0.0
18/08:00pm 9.0 7.1 3.0 66 2.7 ENE 2 4 1 2 1019.7 1019.4 0.0
18/07:30pm 10.2 8.7 3.0 61 3.3 CALM 0 2 0 1 1019.4 1019.1 0.0
18/07:00pm 11.1 8.9 3.2 58 3.6 ENE 4 6 2 3 1019.2 1018.9 0.0
18/06:30pm 13.1 11.6 2.9 50 4.7 CALM 0 0 0 0 1019.1 1018.8 0.0
18/06:00pm 15.9 13.9 2.3 40 6.4 NNW 2 4 1 2 1018.9 1018.6 0.0
18/05:30pm 18.3 15.7 3.0 36 7.4 N 6 9 3 5 1018.7 1018.4 0.0
18/05:00pm 19.4 16.7 2.7 33 8.1 NNW 6 9 3 5 1018.7 1018.4 0.0
18/04:30pm 19.9 17.0 2.7 32 8.4 NNW 7 15 4 8 1018.6 1018.3 0.0
18/04:00pm 20.5 17.6 2.8 31 8.7 NNW 7 17 4 9 1018.6 1018.3 0.0
18/03:30pm 20.3 17.3 1.7 29 8.9 NW 7 15 4 8 1018.5 1018.1 0.0
18/03:00pm 19.9 16.9 2.3 31 8.5 N 7 13 4 7 1018.6 1018.3 0.0
18/02:30pm 21.3 18.4 1.6 27 9.5 NNW 6 15 3 8 1018.8 1018.5 0.0
18/02:00pm 21.7 19.0 2.4 28 9.5 SW 6 11 3 6 1019.0 1018.7 0.0
18/01:30pm 21.2 18.4 2.0 28 9.3 N 6 15 3 8 1019.4 1019.1 0.0
18/01:00pm 21.0 17.7 2.3 29 9.1 N 9 19 5 10 1019.9 1019.6 0.0
18/12:30pm 19.7 16.5 3.0 33 8.2 N 9 19 5 10 1020.3 1020.0 0.0
18/12:00pm 20.4 17.7 5.6 38 7.6 NNE 9 19 5 10 1020.7 1020.5 0.0
18/11:30am 19.5 16.5 4.0 36 7.7 N 9 17 5 9 1021.3 1021.0 0.0
18/11:00am 18.6 16.4 8.0 50 5.7 NE 9 17 5 9 1021.8 1021.6 0.0
18/10:30am 17.0 14.7 7.6 54 5.0 NNE 9 15 5 8 1022.3 1022.0 0.0
18/10:00am 15.7 13.5 8.0 60 4.0 ENE 9 17 5 9 1022.5 1022.3 0.0
18/09:30am 14.0 11.8 7.8 66 3.2 NE 9 17 5 9 1022.8 1022.6 0.0
18/09:00am 13.6 12.0 8.9 73 2.5 ENE 7 15 4 8 1022.8 1022.6 0.0
18/08:30am 11.7 10.0 8.4 80 1.7 ENE 7 13 4 7 1022.8 1022.6 0.0
18/08:00am 11.0 9.2 8.1 82 1.5 E 7 15 4 8 1022.7 1022.5 0.0
18/07:30am 10.1 8.5 8.0 87 1.1 ENE 6 9 3 5 1022.4 1022.1 0.0
18/07:00am 8.7 6.9 7.2 90 0.7 ENE 6 11 3 6 1022.4 1022.1 0.0
18/06:30am 8.4 6.6 7.0 91 0.7 ENE 6 9 3 5 1022.0 1021.8 0.0
18/06:00am 8.3 6.8 6.8 90 0.7 ENE 4 7 2 4 1021.7 1021.5 0.0
18/05:30am 8.5 6.6 6.8 89 0.8 E 6 9 3 5 1021.6 1021.4 0.0
18/05:00am 8.7 6.9 7.0 89 0.8 ENE 6 9 3 5 1021.4 1021.1 0.0
18/04:30am 8.8 7.0 7.3 90 0.7 E 6 11 3 6 1021.4 1021.1 0.0
18/04:00am 9.1 7.7 7.4 89 0.8 E 4 11 2 6 1021.5 1021.3 0.0
18/03:30am 9.2 7.4 7.8 91 0.7 E 7 15 4 8 1021.4 1021.1 0.0
18/03:00am 8.3 6.8 6.8 90 0.7 ENE 4 6 2 3 1021.2 1020.9 0.0
18/02:30am 8.4 6.7 7.5 94 0.4 ENE 6 9 3 5 1021.6 1021.4 0.0
18/02:00am 6.4 4.9 4.9 90 0.7 ENE 2 4 1 2 1021.8 1021.6 0.0
18/01:30am 6.2 4.9 4.0 86 1.0 CALM 0 2 0 1 1021.9 1021.7 0.0
18/01:00am 7.9 6.2 5.9 87 1.0 ENE 4 7 2 4 1022.2 1021.9 0.0
18/12:30am 7.7 5.8 4.7 81 1.4 ENE 4 7 2 4 1022.3 1022.0 0.0
18/12:00am 8.3 6.3 4.5 77 1.8 ENE 4 7 2 4 1022.4 1022.1 0.0
 
Date/Time
EST
Temp
°C
App
Temp
°C
Dew
Point
°C
Rel
Hum
%
Delta-T
°C
Wind Press
QNH
hPa
Press
MSL
hPa
Rain since
9am
mm
Dir  Spd
km/h
Gust
km/h
Spd
kts
Gust
kts
17/11:30pm 8.8 6.3 3.8 71 2.3 ENE 6 9 3 5 1022.3 1022.0 0.0
17/11:00pm 8.3 5.5 1.9 64 2.8 NE 6 9 3 5 1022.2 1021.9 0.0
17/10:30pm 5.8 2.7 -2.3 56 3.1 NNE 4 4 2 2 1022.0 1021.8 0.0
17/10:00pm 6.1 2.6 -2.7 53 3.3 ENE 6 9 3 5 1021.9 1021.7 0.0
17/09:30pm 4.6 2.1 -3.9 54 3.1 CALM 0 0 0 0 1021.5 1021.3 0.0
17/09:00pm 5.2 2.7 -4.1 51 3.4 CALM 0 0 0 0 1021.4 1021.1 0.0
17/08:30pm 5.7 3.2 -3.9 50 3.5 CALM 0 0 0 0 1021.3 1021.0 0.0
17/08:00pm 6.7 4.2 -4.4 45 4.1 CALM 0 0 0 0 1021.3 1021.0 0.0
17/07:30pm 7.6 4.7 -4.2 43 4.4 NE 2 4 1 2 1021.2 1020.9 0.0
17/07:00pm 8.8 5.9 -4.0 40 4.9 ENE 2 4 1 2 1021.1 1020.8 0.0
17/06:30pm 10.4 7.8 -4.8 34 5.8 CALM 0 0 0 0 1020.6 1020.4 0.0
17/06:00pm 12.8 9.7 -6.2 26 7.2 WNW 2 2 1 1 1020.1 1019.8 0.0
17/05:30pm 15.9 12.4 -6.4 21 8.7 WSW 4 6 2 3 1020.0 1019.7 0.0
17/05:00pm 18.7 14.8 -6.1 18 10.0 WSW 6 9 3 5 1019.7 1019.4 0.0
17/04:30pm 19.5 15.0 -7.0 16 10.6 SW 9 17 5 9 1019.4 1019.1 0.0
17/04:00pm 19.9 15.0 -7.5 15 10.9 WSW 11 20 6 11 1019.2 1018.9 0.0
17/03:30pm 20.4 15.5 -7.1 15 11.1 WSW 11 22 6 12 1019.1 1018.8 0.0
17/03:00pm 20.1 14.8 -7.3 15 11.0 WSW 13 20 7 11 1019.0 1018.7 0.0
17/02:30pm 20.6 15.3 -6.9 15 11.2 SW 13 24 7 13 1018.9 1018.6 0.0
17/02:00pm 20.4 16.7 -3.3 20 10.3 W 7 17 4 9 1018.9 1018.6 0.0
17/01:30pm 20.2 14.9 -3.4 20 10.2 WSW 15 22 8 12 1019.2 1018.9 0.0

Other formats

Comma delimited format used in spreadsheet applications
http://www.bom.gov.au/fwo/IDQ60801/IDQ60801.94553.axf

JavaScript Object Notation format (JSON) in row-major order
http://www.bom.gov.au/fwo/IDQ60801/IDQ60801.94553.json

Data quality

Most of these data are generated automatically and are frequently updated. Quality checks on data are not normally performed. It is possible for incorrect values to appear. Refer to information at About Latest Weather Observations and please check the disclaimer before using these data.